sensor_id;sensor_type;location;lat;lon;timestamp;P1;durP1;ratioP1;P2;durP2;ratioP2
75739;SDS011;64357;51.344;6.550;2022-11-20T00:01:15;17.60;;;6.30;;
75739;SDS011;64357;51.344;6.550;2022-11-20T00:03:47;17.42;;;5.93;;
75739;SDS011;64357;51.344;6.550;2022-11-20T00:06:16;20.23;;;6.65;;
75739;SDS011;64357;51.344;6.550;2022-11-20T00:08:43;18.45;;;5.28;;
75739;SDS011;64357;51.344;6.550;2022-11-20T00:11:15;16.35;;;5.70;;
75739;SDS011;64357;51.344;6.550;2022-11-20T00:13:43;17.17;;;5.78;;
75739;SDS011;64357;51.344;6.550;2022-11-20T00:16:12;16.65;;;5.80;;
75739;SDS011;64357;51.344;6.550;2022-11-20T00:18:39;16.73;;;5.72;;
75739;SDS011;64357;51.344;6.550;2022-11-20T00:21:11;18.33;;;6.15;;
75739;SDS011;64357;51.344;6.550;2022-11-20T00:23:38;16.95;;;6.22;;
75739;SDS011;64357;51.344;6.550;2022-11-20T00:26:07;14.55;;;5.60;;
75739;SDS011;64357;51.344;6.550;2022-11-20T00:28:39;19.00;;;6.78;;
75739;SDS011;64357;51.344;6.550;2022-11-20T00:31:06;14.70;;;6.13;;
75739;SDS011;64357;51.344;6.550;2022-11-20T00:33:33;19.30;;;6.82;;
75739;SDS011;64357;51.344;6.550;2022-11-20T00:35:59;17.23;;;6.78;;
75739;SDS011;64357;51.344;6.550;2022-11-20T00:38:36;14.05;;;5.97;;
75739;SDS011;64357;51.344;6.550;2022-11-20T00:41:05;18.02;;;6.53;;
75739;SDS011;64357;51.344;6.550;2022-11-20T00:43:34;18.13;;;6.43;;
75739;SDS011;64357;51.344;6.550;2022-11-20T00:46:00;22.27;;;7.40;;
75739;SDS011;64357;51.344;6.550;2022-11-20T00:48:28;19.00;;;6.22;;
75739;SDS011;64357;51.344;6.550;2022-11-20T00:50:55;18.90;;;7.38;;
75739;SDS011;64357;51.344;6.550;2022-11-20T00:53:21;16.17;;;5.75;;
75739;SDS011;64357;51.344;6.550;2022-11-20T00:55:57;17.00;;;5.93;;
75739;SDS011;64357;51.344;6.550;2022-11-20T00:58:25;15.80;;;6.15;;
75739;SDS011;64357;51.344;6.550;2022-11-20T01:00:53;18.10;;;6.82;;
75739;SDS011;64357;51.344;6.550;2022-11-20T01:03:30;17.73;;;6.88;;
75739;SDS011;64357;51.344;6.550;2022-11-20T01:06:00;18.65;;;7.45;;
75739;SDS011;64357;51.344;6.550;2022-11-20T01:08:30;19.15;;;6.75;;
75739;SDS011;64357;51.344;6.550;2022-11-20T01:11:00;19.30;;;6.97;;
75739;SDS011;64357;51.344;6.550;2022-11-20T01:13:27;17.48;;;6.75;;
75739;SDS011;64357;51.344;6.550;2022-11-20T01:18:31;17.42;;;6.80;;
75739;SDS011;64357;51.344;6.550;2022-11-20T01:21:02;21.73;;;7.90;;
75739;SDS011;64357;51.344;6.550;2022-11-20T01:23:32;20.65;;;7.35;;
75739;SDS011;64357;51.344;6.550;2022-11-20T01:26:04;18.52;;;7.10;;
75739;SDS011;64357;51.344;6.550;2022-11-20T01:28:31;18.98;;;7.22;;
75739;SDS011;64357;51.344;6.550;2022-11-20T01:31:01;16.85;;;6.55;;
75739;SDS011;64357;51.344;6.550;2022-11-20T01:33:38;17.90;;;7.03;;
75739;SDS011;64357;51.344;6.550;2022-11-20T01:36:05;18.17;;;6.70;;
75739;SDS011;64357;51.344;6.550;2022-11-20T01:38:31;13.93;;;6.10;;
75739;SDS011;64357;51.344;6.550;2022-11-20T01:40:56;19.60;;;7.07;;
75739;SDS011;64357;51.344;6.550;2022-11-20T01:43:22;22.27;;;7.57;;
75739;SDS011;64357;51.344;6.550;2022-11-20T01:48:15;18.67;;;7.43;;
75739;SDS011;64357;51.344;6.550;2022-11-20T01:50:42;15.65;;;5.97;;
75739;SDS011;64357;51.344;6.550;2022-11-20T01:53:09;18.88;;;7.32;;
75739;SDS011;64357;51.344;6.550;2022-11-20T01:55:43;16.33;;;6.70;;
75739;SDS011;64357;51.344;6.550;2022-11-20T01:58:13;20.73;;;6.72;;
75739;SDS011;64357;51.344;6.550;2022-11-20T02:00:40;18.73;;;7.57;;
75739;SDS011;64357;51.344;6.550;2022-11-20T02:03:09;15.00;;;5.80;;
75739;SDS011;64357;51.344;6.550;2022-11-20T02:05:41;13.30;;;5.38;;
75739;SDS011;64357;51.344;6.550;2022-11-20T02:08:14;17.23;;;6.45;;
75739;SDS011;64357;51.344;6.550;2022-11-20T02:10:40;20.30;;;7.90;;
75739;SDS011;64357;51.344;6.550;2022-11-20T02:13:08;20.40;;;7.07;;
75739;SDS011;64357;51.344;6.550;2022-11-20T02:15:52;18.38;;;7.18;;
75739;SDS011;64357;51.344;6.550;2022-11-20T02:18:19;20.73;;;6.85;;
75739;SDS011;64357;51.344;6.550;2022-11-20T02:20:46;17.48;;;7.18;;
75739;SDS011;64357;51.344;6.550;2022-11-20T02:26:06;20.73;;;7.65;;
75739;SDS011;64357;51.344;6.550;2022-11-20T02:28:36;16.73;;;6.32;;
75739;SDS011;64357;51.344;6.550;2022-11-20T02:31:02;19.38;;;7.03;;
75739;SDS011;64357;51.344;6.550;2022-11-20T02:33:27;18.13;;;7.10;;
75739;SDS011;64357;51.344;6.550;2022-11-20T02:35:52;18.07;;;6.00;;
75739;SDS011;64357;51.344;6.550;2022-11-20T02:38:18;19.97;;;6.70;;
75739;SDS011;64357;51.344;6.550;2022-11-20T02:40:44;20.50;;;6.75;;
75739;SDS011;64357;51.344;6.550;2022-11-20T02:43:09;19.08;;;7.15;;
75739;SDS011;64357;51.344;6.550;2022-11-20T02:45:35;21.92;;;7.70;;
75739;SDS011;64357;51.344;6.550;2022-11-20T02:48:03;18.67;;;7.32;;
75739;SDS011;64357;51.344;6.550;2022-11-20T02:50:28;19.58;;;7.10;;
75739;SDS011;64357;51.344;6.550;2022-11-20T02:52:54;18.50;;;7.97;;
75739;SDS011;64357;51.344;6.550;2022-11-20T02:55:19;18.70;;;7.83;;
75739;SDS011;64357;51.344;6.550;2022-11-20T02:57:44;20.13;;;7.10;;
75739;SDS011;64357;51.344;6.550;2022-11-20T03:00:12;22.67;;;7.53;;
75739;SDS011;64357;51.344;6.550;2022-11-20T03:02:38;20.58;;;7.78;;
75739;SDS011;64357;51.344;6.550;2022-11-20T03:05:07;20.13;;;7.72;;
75739;SDS011;64357;51.344;6.550;2022-11-20T03:07:33;21.77;;;8.80;;
75739;SDS011;64357;51.344;6.550;2022-11-20T03:09:58;20.20;;;8.25;;
75739;SDS011;64357;51.344;6.550;2022-11-20T03:12:24;18.80;;;8.10;;
75739;SDS011;64357;51.344;6.550;2022-11-20T03:14:49;20.40;;;7.50;;
75739;SDS011;64357;51.344;6.550;2022-11-20T03:17:15;19.77;;;7.70;;
75739;SDS011;64357;51.344;6.550;2022-11-20T03:19:43;20.13;;;8.02;;
75739;SDS011;64357;51.344;6.550;2022-11-20T03:22:08;21.73;;;7.63;;
75739;SDS011;64357;51.344;6.550;2022-11-20T03:24:34;16.20;;;6.20;;
75739;SDS011;64357;51.344;6.550;2022-11-20T03:26:59;21.80;;;8.10;;
75739;SDS011;64357;51.344;6.550;2022-11-20T03:29:27;17.63;;;7.63;;
75739;SDS011;64357;51.344;6.550;2022-11-20T03:31:52;19.88;;;7.50;;
75739;SDS011;64357;51.344;6.550;2022-11-20T03:34:17;20.80;;;7.93;;
75739;SDS011;64357;51.344;6.550;2022-11-20T03:36:47;21.35;;;8.52;;
75739;SDS011;64357;51.344;6.550;2022-11-20T03:39:12;16.55;;;6.38;;
75739;SDS011;64357;51.344;6.550;2022-11-20T03:41:39;21.50;;;8.23;;
75739;SDS011;64357;51.344;6.550;2022-11-20T03:44:06;17.65;;;6.82;;
75739;SDS011;64357;51.344;6.550;2022-11-20T03:46:32;19.30;;;8.32;;
75739;SDS011;64357;51.344;6.550;2022-11-20T03:48:58;24.38;;;7.20;;
75739;SDS011;64357;51.344;6.550;2022-11-20T03:51:28;9.68;;;3.42;;
75739;SDS011;64357;51.344;6.550;2022-11-20T03:53:56;14.10;;;6.05;;
75739;SDS011;64357;51.344;6.550;2022-11-20T03:56:24;10.85;;;4.38;;
75739;SDS011;64357;51.344;6.550;2022-11-20T03:58:57;14.45;;;5.15;;
75739;SDS011;64357;51.344;6.550;2022-11-20T04:01:24;19.30;;;7.82;;
75739;SDS011;64357;51.344;6.550;2022-11-20T04:03:52;21.35;;;7.75;;
75739;SDS011;64357;51.344;6.550;2022-11-20T04:06:23;15.93;;;7.38;;
75739;SDS011;64357;51.344;6.550;2022-11-20T04:08:50;20.20;;;8.05;;
75739;SDS011;64357;51.344;6.550;2022-11-20T04:11:17;13.77;;;5.38;;
75739;SDS011;64357;51.344;6.550;2022-11-20T04:13:48;19.88;;;7.60;;
75739;SDS011;64357;51.344;6.550;2022-11-20T04:16:15;13.85;;;5.28;;
75739;SDS011;64357;51.344;6.550;2022-11-20T04:18:41;20.33;;;7.40;;
75739;SDS011;64357;51.344;6.550;2022-11-20T04:21:09;20.63;;;7.90;;
75739;SDS011;64357;51.344;6.550;2022-11-20T04:23:35;19.67;;;6.88;;
75739;SDS011;64357;51.344;6.550;2022-11-20T04:26:07;20.88;;;7.18;;
75739;SDS011;64357;51.344;6.550;2022-11-20T04:28:34;16.70;;;6.28;;
75739;SDS011;64357;51.344;6.550;2022-11-20T04:33:30;18.65;;;6.72;;
75739;SDS011;64357;51.344;6.550;2022-11-20T04:35:59;13.73;;;5.05;;
75739;SDS011;64357;51.344;6.550;2022-11-20T04:38:25;17.70;;;6.50;;
75739;SDS011;64357;51.344;6.550;2022-11-20T04:40:51;19.23;;;7.67;;
75739;SDS011;64357;51.344;6.550;2022-11-20T04:43:21;18.08;;;6.97;;
75739;SDS011;64357;51.344;6.550;2022-11-20T04:45:50;18.63;;;7.10;;
75739;SDS011;64357;51.344;6.550;2022-11-20T04:48:16;18.20;;;7.88;;
75739;SDS011;64357;51.344;6.550;2022-11-20T04:50:41;19.87;;;7.47;;
75739;SDS011;64357;51.344;6.550;2022-11-20T04:53:07;20.57;;;7.83;;
75739;SDS011;64357;51.344;6.550;2022-11-20T04:55:32;20.03;;;6.80;;
75739;SDS011;64357;51.344;6.550;2022-11-20T04:57:57;17.90;;;6.93;;
75739;SDS011;64357;51.344;6.550;2022-11-20T05:00:25;18.08;;;7.22;;
75739;SDS011;64357;51.344;6.550;2022-11-20T05:02:55;17.35;;;6.68;;
75739;SDS011;64357;51.344;6.550;2022-11-20T05:05:20;16.52;;;6.90;;
75739;SDS011;64357;51.344;6.550;2022-11-20T05:07:45;16.47;;;6.57;;
75739;SDS011;64357;51.344;6.550;2022-11-20T05:10:11;22.10;;;6.63;;
75739;SDS011;64357;51.344;6.550;2022-11-20T05:12:38;20.23;;;7.10;;
75739;SDS011;64357;51.344;6.550;2022-11-20T05:15:04;17.95;;;6.38;;
75739;SDS011;64357;51.344;6.550;2022-11-20T05:17:30;16.50;;;7.00;;
75739;SDS011;64357;51.344;6.550;2022-11-20T05:19:57;15.00;;;6.40;;
75739;SDS011;64357;51.344;6.550;2022-11-20T05:22:23;17.38;;;6.65;;
75739;SDS011;64357;51.344;6.550;2022-11-20T05:24:50;17.20;;;6.60;;
75739;SDS011;64357;51.344;6.550;2022-11-20T05:27:16;16.25;;;6.90;;
75739;SDS011;64357;51.344;6.550;2022-11-20T05:29:41;22.58;;;8.25;;
75739;SDS011;64357;51.344;6.550;2022-11-20T05:32:07;21.63;;;7.23;;
75739;SDS011;64357;51.344;6.550;2022-11-20T05:34:34;24.13;;;7.40;;
75739;SDS011;64357;51.344;6.550;2022-11-20T05:37:00;22.33;;;6.72;;
75739;SDS011;64357;51.344;6.550;2022-11-20T05:39:27;21.73;;;7.57;;
75739;SDS011;64357;51.344;6.550;2022-11-20T05:41:55;16.35;;;6.20;;
75739;SDS011;64357;51.344;6.550;2022-11-20T05:44:42;22.77;;;7.90;;
75739;SDS011;64357;51.344;6.550;2022-11-20T05:47:07;17.50;;;6.43;;
75739;SDS011;64357;51.344;6.550;2022-11-20T05:49:32;17.80;;;6.28;;
75739;SDS011;64357;51.344;6.550;2022-11-20T05:51:58;17.53;;;6.67;;
75739;SDS011;64357;51.344;6.550;2022-11-20T05:54:23;18.83;;;6.43;;
75739;SDS011;64357;51.344;6.550;2022-11-20T05:56:49;21.15;;;7.32;;
75739;SDS011;64357;51.344;6.550;2022-11-20T05:59:14;16.20;;;6.50;;
75739;SDS011;64357;51.344;6.550;2022-11-20T06:01:39;14.83;;;6.27;;
75739;SDS011;64357;51.344;6.550;2022-11-20T06:04:09;18.00;;;7.18;;
75739;SDS011;64357;51.344;6.550;2022-11-20T06:06:35;22.38;;;7.18;;
75739;SDS011;64357;51.344;6.550;2022-11-20T06:09:00;15.90;;;6.03;;
75739;SDS011;64357;51.344;6.550;2022-11-20T06:11:25;19.27;;;5.87;;
75739;SDS011;64357;51.344;6.550;2022-11-20T06:13:51;20.53;;;7.50;;
75739;SDS011;64357;51.344;6.550;2022-11-20T06:16:17;19.00;;;7.30;;
75739;SDS011;64357;51.344;6.550;2022-11-20T06:18:45;17.83;;;5.95;;
75739;SDS011;64357;51.344;6.550;2022-11-20T06:23:36;17.70;;;7.03;;
75739;SDS011;64357;51.344;6.550;2022-11-20T06:26:03;16.88;;;7.20;;
75739;SDS011;64357;51.344;6.550;2022-11-20T06:28:33;18.35;;;6.68;;
75739;SDS011;64357;51.344;6.550;2022-11-20T06:30:58;18.17;;;7.00;;
75739;SDS011;64357;51.344;6.550;2022-11-20T06:33:27;20.23;;;7.18;;
75739;SDS011;64357;51.344;6.550;2022-11-20T06:35:59;21.45;;;6.90;;
75739;SDS011;64357;51.344;6.550;2022-11-20T06:38:27;17.92;;;6.07;;
75739;SDS011;64357;51.344;6.550;2022-11-20T06:40:53;18.25;;;6.65;;
75739;SDS011;64357;51.344;6.550;2022-11-20T06:43:19;20.70;;;7.57;;
75739;SDS011;64357;51.344;6.550;2022-11-20T06:45:45;24.25;;;8.23;;
75739;SDS011;64357;51.344;6.550;2022-11-20T06:48:10;15.67;;;6.63;;
75739;SDS011;64357;51.344;6.550;2022-11-20T06:50:36;17.90;;;7.17;;
75739;SDS011;64357;51.344;6.550;2022-11-20T06:53:02;18.63;;;6.75;;
75739;SDS011;64357;51.344;6.550;2022-11-20T06:55:29;17.20;;;6.95;;
75739;SDS011;64357;51.344;6.550;2022-11-20T06:57:55;19.95;;;7.53;;
75739;SDS011;64357;51.344;6.550;2022-11-20T07:00:23;20.42;;;6.97;;
75739;SDS011;64357;51.344;6.550;2022-11-20T07:02:49;16.00;;;6.00;;
75739;SDS011;64357;51.344;6.550;2022-11-20T07:05:16;18.92;;;7.35;;
75739;SDS011;64357;51.344;6.550;2022-11-20T07:07:42;19.90;;;7.07;;
75739;SDS011;64357;51.344;6.550;2022-11-20T07:10:08;19.20;;;6.97;;
75739;SDS011;64357;51.344;6.550;2022-11-20T07:12:36;18.65;;;7.43;;
75739;SDS011;64357;51.344;6.550;2022-11-20T07:15:02;22.17;;;7.87;;
75739;SDS011;64357;51.344;6.550;2022-11-20T07:17:27;18.90;;;7.03;;
75739;SDS011;64357;51.344;6.550;2022-11-20T07:19:52;19.25;;;7.05;;
75739;SDS011;64357;51.344;6.550;2022-11-20T07:22:20;22.63;;;8.10;;
75739;SDS011;64357;51.344;6.550;2022-11-20T07:24:46;20.73;;;7.10;;
75739;SDS011;64357;51.344;6.550;2022-11-20T07:27:12;14.00;;;5.70;;
75739;SDS011;64357;51.344;6.550;2022-11-20T07:29:40;20.60;;;6.53;;
75739;SDS011;64357;51.344;6.550;2022-11-20T07:32:05;20.85;;;7.38;;
75739;SDS011;64357;51.344;6.550;2022-11-20T07:34:31;18.73;;;7.03;;
75739;SDS011;64357;51.344;6.550;2022-11-20T07:36:56;21.80;;;7.60;;
75739;SDS011;64357;51.344;6.550;2022-11-20T07:39:24;18.30;;;6.93;;
75739;SDS011;64357;51.344;6.550;2022-11-20T07:41:49;20.50;;;6.67;;
75739;SDS011;64357;51.344;6.550;2022-11-20T07:44:19;21.80;;;7.18;;
75739;SDS011;64357;51.344;6.550;2022-11-20T07:46:53;20.75;;;7.97;;
75739;SDS011;64357;51.344;6.550;2022-11-20T07:49:18;20.20;;;7.30;;
75739;SDS011;64357;51.344;6.550;2022-11-20T07:51:49;22.42;;;7.00;;
75739;SDS011;64357;51.344;6.550;2022-11-20T07:54:16;23.50;;;8.27;;
75739;SDS011;64357;51.344;6.550;2022-11-20T07:56:41;16.60;;;6.63;;
75739;SDS011;64357;51.344;6.550;2022-11-20T07:59:09;21.52;;;7.00;;
75739;SDS011;64357;51.344;6.550;2022-11-20T08:01:39;18.90;;;6.93;;
75739;SDS011;64357;51.344;6.550;2022-11-20T08:04:05;21.77;;;6.75;;
75739;SDS011;64357;51.344;6.550;2022-11-20T08:06:31;20.83;;;7.70;;
75739;SDS011;64357;51.344;6.550;2022-11-20T08:09:00;20.33;;;7.47;;
75739;SDS011;64357;51.344;6.550;2022-11-20T08:11:25;20.87;;;6.90;;
75739;SDS011;64357;51.344;6.550;2022-11-20T08:14:09;16.63;;;7.03;;
75739;SDS011;64357;51.344;6.550;2022-11-20T08:16:38;19.15;;;7.22;;
75739;SDS011;64357;51.344;6.550;2022-11-20T08:19:12;19.88;;;8.15;;
75739;SDS011;64357;51.344;6.550;2022-11-20T08:21:40;19.48;;;7.72;;
75739;SDS011;64357;51.344;6.550;2022-11-20T08:24:09;20.15;;;6.88;;
75739;SDS011;64357;51.344;6.550;2022-11-20T08:26:35;18.55;;;6.53;;
75739;SDS011;64357;51.344;6.550;2022-11-20T08:29:01;20.08;;;7.60;;
75739;SDS011;64357;51.344;6.550;2022-11-20T08:31:31;17.42;;;7.18;;
75739;SDS011;64357;51.344;6.550;2022-11-20T08:33:57;18.65;;;7.88;;
75739;SDS011;64357;51.344;6.550;2022-11-20T08:36:25;22.40;;;8.98;;
75739;SDS011;64357;51.344;6.550;2022-11-20T08:38:51;19.25;;;7.63;;
75739;SDS011;64357;51.344;6.550;2022-11-20T08:41:18;18.55;;;7.35;;
75739;SDS011;64357;51.344;6.550;2022-11-20T08:43:54;19.95;;;7.70;;
75739;SDS011;64357;51.344;6.550;2022-11-20T08:46:28;20.55;;;7.85;;
75739;SDS011;64357;51.344;6.550;2022-11-20T08:48:58;17.90;;;7.43;;
75739;SDS011;64357;51.344;6.550;2022-11-20T08:51:23;19.55;;;7.63;;
75739;SDS011;64357;51.344;6.550;2022-11-20T08:53:48;19.23;;;7.10;;
75739;SDS011;64357;51.344;6.550;2022-11-20T08:56:21;20.55;;;7.95;;
75739;SDS011;64357;51.344;6.550;2022-11-20T08:58:46;21.98;;;8.38;;
75739;SDS011;64357;51.344;6.550;2022-11-20T09:01:14;20.38;;;7.32;;
75739;SDS011;64357;51.344;6.550;2022-11-20T09:03:39;20.20;;;7.13;;
75739;SDS011;64357;51.344;6.550;2022-11-20T09:06:07;16.97;;;7.07;;
75739;SDS011;64357;51.344;6.550;2022-11-20T09:08:35;19.08;;;7.40;;
75739;SDS011;64357;51.344;6.550;2022-11-20T09:11:01;17.98;;;8.32;;
75739;SDS011;64357;51.344;6.550;2022-11-20T09:13:28;19.52;;;7.38;;
75739;SDS011;64357;51.344;6.550;2022-11-20T09:15:57;17.65;;;6.75;;
75739;SDS011;64357;51.344;6.550;2022-11-20T09:18:33;18.85;;;7.32;;
75739;SDS011;64357;51.344;6.550;2022-11-20T09:21:03;21.98;;;7.57;;
75739;SDS011;64357;51.344;6.550;2022-11-20T09:23:35;18.50;;;7.85;;
75739;SDS011;64357;51.344;6.550;2022-11-20T09:26:06;19.00;;;7.47;;
75739;SDS011;64357;51.344;6.550;2022-11-20T09:28:40;19.75;;;6.95;;
75739;SDS011;64357;51.344;6.550;2022-11-20T09:31:21;20.20;;;8.15;;
75739;SDS011;64357;51.344;6.550;2022-11-20T09:33:48;21.23;;;8.43;;
75739;SDS011;64357;51.344;6.550;2022-11-20T09:36:17;20.02;;;7.95;;
75739;SDS011;64357;51.344;6.550;2022-11-20T09:38:44;21.88;;;7.93;;
75739;SDS011;64357;51.344;6.550;2022-11-20T09:55:40;19.15;;;6.63;;
75739;SDS011;64357;51.344;6.550;2022-11-20T09:58:13;17.33;;;7.32;;
75739;SDS011;64357;51.344;6.550;2022-11-20T10:00:47;17.63;;;6.10;;
75739;SDS011;64357;51.344;6.550;2022-11-20T10:05:48;20.23;;;7.25;;
75739;SDS011;64357;51.344;6.550;2022-11-20T10:10:50;19.10;;;6.68;;
75739;SDS011;64357;51.344;6.550;2022-11-20T10:29:52;18.98;;;7.55;;
75739;SDS011;64357;51.344;6.550;2022-11-20T10:32:30;19.90;;;6.88;;
75739;SDS011;64357;51.344;6.550;2022-11-20T10:35:18;15.82;;;4.32;;
75739;SDS011;64357;51.344;6.550;2022-11-20T10:37:52;21.13;;;7.03;;
75739;SDS011;64357;51.344;6.550;2022-11-20T10:40:45;27.40;;;7.57;;
75739;SDS011;64357;51.344;6.550;2022-11-20T10:43:39;17.17;;;6.68;;
75739;SDS011;64357;51.344;6.550;2022-11-20T10:46:17;30.27;;;8.70;;
75739;SDS011;64357;51.344;6.550;2022-11-20T10:48:46;24.00;;;7.95;;
75739;SDS011;64357;51.344;6.550;2022-11-20T10:56:45;21.97;;;8.03;;
75739;SDS011;64357;51.344;6.550;2022-11-20T11:05:16;27.58;;;9.43;;
75739;SDS011;64357;51.344;6.550;2022-11-20T11:07:51;22.77;;;7.43;;
75739;SDS011;64357;51.344;6.550;2022-11-20T11:10:24;28.08;;;9.05;;
75739;SDS011;64357;51.344;6.550;2022-11-20T11:13:01;25.15;;;8.13;;
75739;SDS011;64357;51.344;6.550;2022-11-20T11:15:39;28.17;;;8.13;;
75739;SDS011;64357;51.344;6.550;2022-11-20T11:18:22;25.33;;;7.50;;
75739;SDS011;64357;51.344;6.550;2022-11-20T11:21:01;24.13;;;7.43;;
75739;SDS011;64357;51.344;6.550;2022-11-20T11:23:38;25.00;;;8.05;;
75739;SDS011;64357;51.344;6.550;2022-11-20T11:26:22;21.83;;;6.88;;
75739;SDS011;64357;51.344;6.550;2022-11-20T11:29:00;23.00;;;8.13;;
75739;SDS011;64357;51.344;6.550;2022-11-20T11:34:04;24.58;;;8.70;;
75739;SDS011;64357;51.344;6.550;2022-11-20T11:36:30;24.67;;;7.97;;
75739;SDS011;64357;51.344;6.550;2022-11-20T11:38:58;24.73;;;8.43;;
75739;SDS011;64357;51.344;6.550;2022-11-20T11:41:25;25.20;;;9.02;;
75739;SDS011;64357;51.344;6.550;2022-11-20T11:43:58;20.10;;;6.50;;
75739;SDS011;64357;51.344;6.550;2022-11-20T11:46:56;26.17;;;7.50;;
75739;SDS011;64357;51.344;6.550;2022-11-20T11:49:22;24.65;;;9.38;;
75739;SDS011;64357;51.344;6.550;2022-11-20T11:54:36;24.35;;;8.48;;
75739;SDS011;64357;51.344;6.550;2022-11-20T11:57:11;23.38;;;7.72;;
75739;SDS011;64357;51.344;6.550;2022-11-20T12:05:03;23.85;;;8.80;;
75739;SDS011;64357;51.344;6.550;2022-11-20T12:15:57;21.88;;;8.57;;
75739;SDS011;64357;51.344;6.550;2022-11-20T12:18:23;19.83;;;8.38;;
75739;SDS011;64357;51.344;6.550;2022-11-20T12:21:08;20.05;;;8.02;;
75739;SDS011;64357;51.344;6.550;2022-11-20T12:23:44;24.67;;;8.00;;
75739;SDS011;64357;51.344;6.550;2022-11-20T12:26:19;25.30;;;9.07;;
75739;SDS011;64357;51.344;6.550;2022-11-20T12:32:06;21.90;;;6.20;;
75739;SDS011;64357;51.344;6.550;2022-11-20T12:37:29;19.65;;;7.07;;
75739;SDS011;64357;51.344;6.550;2022-11-20T12:49:01;23.50;;;8.38;;
75739;SDS011;64357;51.344;6.550;2022-11-20T12:56:54;19.38;;;7.15;;
75739;SDS011;64357;51.344;6.550;2022-11-20T13:07:24;29.33;;;10.23;;
75739;SDS011;64357;51.344;6.550;2022-11-20T13:09:51;26.70;;;11.13;;
75739;SDS011;64357;51.344;6.550;2022-11-20T13:18:00;23.98;;;8.90;;
75739;SDS011;64357;51.344;6.550;2022-11-20T13:20:27;23.92;;;9.57;;
75739;SDS011;64357;51.344;6.550;2022-11-20T13:22:58;30.05;;;10.70;;
75739;SDS011;64357;51.344;6.550;2022-11-20T13:28:27;31.85;;;11.15;;
75739;SDS011;64357;51.344;6.550;2022-11-20T13:30:50;29.52;;;11.45;;
75739;SDS011;64357;51.344;6.550;2022-11-20T13:33:25;27.00;;;8.98;;
75739;SDS011;64357;51.344;6.550;2022-11-20T13:35:56;26.15;;;9.15;;
75739;SDS011;64357;51.344;6.550;2022-11-20T13:38:24;30.30;;;9.93;;
75739;SDS011;64357;51.344;6.550;2022-11-20T13:46:06;28.42;;;10.77;;
75739;SDS011;64357;51.344;6.550;2022-11-20T13:48:45;26.65;;;7.57;;
75739;SDS011;64357;51.344;6.550;2022-11-20T14:02:09;27.52;;;9.77;;
75739;SDS011;64357;51.344;6.550;2022-11-20T14:04:38;26.58;;;10.73;;
75739;SDS011;64357;51.344;6.550;2022-11-20T14:09:34;35.38;;;11.55;;
75739;SDS011;64357;51.344;6.550;2022-11-20T14:12:01;38.28;;;11.88;;
75739;SDS011;64357;51.344;6.550;2022-11-20T14:14:28;19.90;;;7.05;;
75739;SDS011;64357;51.344;6.550;2022-11-20T14:17:08;18.75;;;6.53;;
75739;SDS011;64357;51.344;6.550;2022-11-20T14:19:42;35.60;;;12.88;;
75739;SDS011;64357;51.344;6.550;2022-11-20T14:24:46;28.42;;;10.80;;
75739;SDS011;64357;51.344;6.550;2022-11-20T14:27:15;30.40;;;11.32;;
75739;SDS011;64357;51.344;6.550;2022-11-20T14:29:46;31.38;;;11.23;;
75739;SDS011;64357;51.344;6.550;2022-11-20T14:32:17;33.25;;;11.55;;
75739;SDS011;64357;51.344;6.550;2022-11-20T14:34:46;46.55;;;15.35;;
75739;SDS011;64357;51.344;6.550;2022-11-20T14:37:16;48.78;;;16.00;;
75739;SDS011;64357;51.344;6.550;2022-11-20T14:39:49;48.08;;;16.92;;
75739;SDS011;64357;51.344;6.550;2022-11-20T14:42:35;38.95;;;14.75;;
75739;SDS011;64357;51.344;6.550;2022-11-20T14:45:02;37.83;;;12.68;;
75739;SDS011;64357;51.344;6.550;2022-11-20T14:47:29;37.67;;;12.80;;
75739;SDS011;64357;51.344;6.550;2022-11-20T14:49:56;30.70;;;11.68;;
75739;SDS011;64357;51.344;6.550;2022-11-20T14:52:23;36.60;;;12.95;;
75739;SDS011;64357;51.344;6.550;2022-11-20T14:54:53;33.10;;;11.95;;
75739;SDS011;64357;51.344;6.550;2022-11-20T14:57:42;37.85;;;13.27;;
75739;SDS011;64357;51.344;6.550;2022-11-20T15:00:08;43.60;;;16.45;;
75739;SDS011;64357;51.344;6.550;2022-11-20T15:02:42;34.22;;;11.32;;
75739;SDS011;64357;51.344;6.550;2022-11-20T15:05:13;41.15;;;14.05;;
75739;SDS011;64357;51.344;6.550;2022-11-20T15:07:43;47.25;;;15.73;;
75739;SDS011;64357;51.344;6.550;2022-11-20T15:10:13;42.65;;;15.27;;
75739;SDS011;64357;51.344;6.550;2022-11-20T15:12:57;43.45;;;15.73;;
75739;SDS011;64357;51.344;6.550;2022-11-20T15:15:32;31.63;;;10.40;;
75739;SDS011;64357;51.344;6.550;2022-11-20T15:18:01;32.35;;;13.05;;
75739;SDS011;64357;51.344;6.550;2022-11-20T15:20:29;29.77;;;10.13;;
75739;SDS011;64357;51.344;6.550;2022-11-20T15:22:59;26.75;;;10.82;;
75739;SDS011;64357;51.344;6.550;2022-11-20T15:25:25;28.27;;;9.75;;
75739;SDS011;64357;51.344;6.550;2022-11-20T15:27:56;25.85;;;9.57;;
75739;SDS011;64357;51.344;6.550;2022-11-20T15:30:22;23.17;;;9.35;;
75739;SDS011;64357;51.344;6.550;2022-11-20T15:32:51;27.45;;;9.30;;
75739;SDS011;64357;51.344;6.550;2022-11-20T15:35:16;28.95;;;10.45;;
75739;SDS011;64357;51.344;6.550;2022-11-20T15:37:44;32.50;;;10.45;;
75739;SDS011;64357;51.344;6.550;2022-11-20T15:40:11;29.02;;;8.00;;
75739;SDS011;64357;51.344;6.550;2022-11-20T15:42:37;28.92;;;9.43;;
75739;SDS011;64357;51.344;6.550;2022-11-20T15:45:05;25.67;;;9.43;;
75739;SDS011;64357;51.344;6.550;2022-11-20T15:47:33;38.38;;;12.43;;
75739;SDS011;64357;51.344;6.550;2022-11-20T15:50:00;28.95;;;10.43;;
75739;SDS011;64357;51.344;6.550;2022-11-20T15:52:25;32.30;;;11.43;;
75739;SDS011;64357;51.344;6.550;2022-11-20T15:54:51;31.85;;;10.27;;
75739;SDS011;64357;51.344;6.550;2022-11-20T15:57:16;27.73;;;9.60;;
75739;SDS011;64357;51.344;6.550;2022-11-20T15:59:42;30.53;;;10.37;;
75739;SDS011;64357;51.344;6.550;2022-11-20T16:02:10;24.50;;;8.57;;
75739;SDS011;64357;51.344;6.550;2022-11-20T16:04:39;26.17;;;9.13;;
75739;SDS011;64357;51.344;6.550;2022-11-20T16:07:04;28.02;;;9.25;;
75739;SDS011;64357;51.344;6.550;2022-11-20T16:09:29;31.30;;;10.63;;
75739;SDS011;64357;51.344;6.550;2022-11-20T16:11:55;25.85;;;8.35;;
75739;SDS011;64357;51.344;6.550;2022-11-20T16:14:20;28.20;;;9.43;;
75739;SDS011;64357;51.344;6.550;2022-11-20T16:17:04;29.00;;;10.10;;
75739;SDS011;64357;51.344;6.550;2022-11-20T16:19:32;30.10;;;9.80;;
75739;SDS011;64357;51.344;6.550;2022-11-20T16:21:57;27.93;;;9.33;;
75739;SDS011;64357;51.344;6.550;2022-11-20T16:24:24;24.23;;;9.55;;
75739;SDS011;64357;51.344;6.550;2022-11-20T16:26:49;21.73;;;8.95;;
75739;SDS011;64357;51.344;6.550;2022-11-20T16:29:15;29.70;;;10.53;;
75739;SDS011;64357;51.344;6.550;2022-11-20T16:31:40;29.08;;;10.05;;
75739;SDS011;64357;51.344;6.550;2022-11-20T16:34:08;27.87;;;10.87;;
75739;SDS011;64357;51.344;6.550;2022-11-20T16:36:33;31.77;;;10.65;;
75739;SDS011;64357;51.344;6.550;2022-11-20T16:39:00;24.45;;;9.25;;
75739;SDS011;64357;51.344;6.550;2022-11-20T16:41:30;31.27;;;10.10;;
75739;SDS011;64357;51.344;6.550;2022-11-20T16:43:57;27.00;;;9.00;;
75739;SDS011;64357;51.344;6.550;2022-11-20T16:46:25;25.50;;;9.18;;
75739;SDS011;64357;51.344;6.550;2022-11-20T16:48:57;28.48;;;10.73;;
75739;SDS011;64357;51.344;6.550;2022-11-20T16:51:27;30.67;;;9.95;;
75739;SDS011;64357;51.344;6.550;2022-11-20T16:53:54;27.13;;;9.18;;
75739;SDS011;64357;51.344;6.550;2022-11-20T16:56:21;26.98;;;10.10;;
75739;SDS011;64357;51.344;6.550;2022-11-20T16:58:48;25.70;;;9.30;;
75739;SDS011;64357;51.344;6.550;2022-11-20T17:01:16;31.60;;;9.57;;